Time;durP1;ratioP1;P1;durP2;ratioP2;P2;SDS_P1;SDS_P2;PMS_P1;PMS_P2;Temp;Humidity;BMP_temperature;BMP_pressure;BME280_temperature;BME280_humidity;BME280_pressure;Samples;Min_cycle;Max_cycle;Signal;HPM_P1;HPM_P2
2022/08/29 00:01:41;;;;;;;;;;;27.20;94.20;;;;;;5104283;28;19916;-56
2022/08/29 00:04:07;;;;;;;;;;;27.20;94.20;;;;;;5104351;28;19965;-53
2022/08/29 00:06:33;;;;;;;;;;;27.20;94.30;;;;;;5104340;28;19908;-53
2022/08/29 00:09:00;;;;;;;;;;;27.20;94.40;;;;;;5103893;28;19912;-54
2022/08/29 00:11:26;;;;;;;;;;;27.20;94.50;;;;;;5104254;28;19911;-55
2022/08/29 00:13:52;;;;;;;;;;;27.20;94.40;;;;;;5104222;28;20219;-55
2022/08/29 00:16:18;;;;;;;;;;;27.20;94.40;;;;;;5104152;28;19908;-54
2022/08/29 00:18:44;;;;;;;;;;;27.20;94.40;;;;;;5104355;28;19957;-53
2022/08/29 00:21:11;;;;;;;;;;;27.10;94.40;;;;;;5104584;28;19919;-55
2022/08/29 00:23:37;;;;;;;;;;;27.10;94.40;;;;;;5104084;28;19904;-56
2022/08/29 00:26:03;;;;;;;;;;;27.10;94.40;;;;;;5107808;28;19983;-55
2022/08/29 00:28:29;;;;;;;;;;;27.10;94.40;;;;;;5108119;28;19943;-54
2022/08/29 00:30:55;;;;;;;;;;;27.10;94.50;;;;;;5108509;28;19919;-55
2022/08/29 00:33:22;;;;;;;;;;;27.10;94.50;;;;;;5107986;28;19908;-57
2022/08/29 00:35:48;;;;;;;;;;;27.10;94.50;;;;;;5108576;28;20196;-54
2022/08/29 00:38:15;;;;;;;;;;;27.10;94.50;;;;;;5108141;28;20100;-55
2022/08/29 00:40:46;;;;;;;;;;;27.10;94.50;;;;;;5108320;28;19912;-56
2022/08/29 00:43:13;;;;;;;;;;;27.00;94.40;;;;;;5107862;28;19908;-61
2022/08/29 00:45:45;;;;;;;;;;;27.10;94.50;;;;;;5108052;28;19912;-56
2022/08/29 00:48:13;;;;;;;;;;;27.00;94.40;;;;;;5107804;28;19935;-53
2022/08/29 00:50:42;;;;;;;;;;;27.00;94.40;;;;;;5108042;28;19979;-52
2022/08/29 00:53:10;;;;;;;;;;;27.00;94.50;;;;;;5107664;28;19946;-55
2022/08/29 00:55:37;;;;;;;;;;;27.00;94.60;;;;;;5107946;28;19912;-52
2022/08/29 00:58:08;;;;;;;;;;;27.00;94.60;;;;;;5107663;28;19971;-55
2022/08/29 01:00:34;;;;;;;;;;;27.00;94.60;;;;;;5107804;28;19912;-54
2022/08/29 01:03:01;;;;;;;;;;;27.00;94.60;;;;;;5107537;28;19904;-54
2022/08/29 01:05:27;;;;;;;;;;;27.00;94.70;;;;;;5107703;28;19934;-54
2022/08/29 01:07:54;;;;;;;;;;;26.90;94.70;;;;;;5107233;28;19935;-54
2022/08/29 01:13:06;;;;;;;;;;;27.00;94.70;;;;;;5107105;28;19923;-53
2022/08/29 01:15:32;;;;;;;;;;;26.90;94.60;;;;;;5107583;28;19912;-53
2022/08/29 01:18:00;;;;;;;;;;;26.90;94.60;;;;;;5107238;28;19904;-53
2022/08/29 01:21:04;;;;;;;;;;;26.90;94.60;;;;;;5107505;28;20180;-55
2022/08/29 01:23:37;;;;;;;;;;;26.90;94.60;;;;;;5025289;28;19910;-55
2022/08/29 01:26:04;;;;;;;;;;;26.90;94.60;;;;;;5025304;28;19980;-55
2022/08/29 01:28:32;;;;;;;;;;;26.90;94.60;;;;;;5068129;28;20212;-54
2022/08/29 01:30:58;;;;;;;;;;;26.90;94.50;;;;;;5107428;28;19979;-54
2022/08/29 01:33:24;;;;;;;;;;;26.90;94.50;;;;;;5106899;28;19908;-54
2022/08/29 01:35:51;;;;;;;;;;;26.90;94.40;;;;;;5106940;28;19939;-56
2022/08/29 01:38:26;;;;;;;;;;;26.90;94.40;;;;;;5106998;28;19943;-52
2022/08/29 01:40:57;;;;;;;;;;;26.90;94.40;;;;;;5107242;28;19912;-53
2022/08/29 01:43:24;;;;;;;;;;;26.90;94.40;;;;;;5106739;28;19951;-54
2022/08/29 01:45:50;;;;;;;;;;;26.90;94.40;;;;;;5107200;28;19912;-57
2022/08/29 01:48:17;;;;;;;;;;;26.90;94.40;;;;;;5106794;28;19915;-60
2022/08/29 01:50:44;;;;;;;;;;;26.90;94.30;;;;;;5107094;28;19919;-53
2022/08/29 01:53:10;;;;;;;;;;;26.90;94.30;;;;;;5106385;28;19904;-52
2022/08/29 01:55:36;;;;;;;;;;;26.90;94.30;;;;;;5106885;28;19912;-53
2022/08/29 01:58:03;;;;;;;;;;;26.80;94.30;;;;;;5106505;28;20107;-55
2022/08/29 02:00:29;;;;;;;;;;;26.80;94.30;;;;;;5106644;28;19908;-57
2022/08/29 02:02:59;;;;;;;;;;;26.90;94.30;;;;;;5106160;28;19907;-54
2022/08/29 02:05:25;;;;;;;;;;;26.90;94.10;;;;;;5106683;28;20246;-53
2022/08/29 02:07:51;;;;;;;;;;;26.80;94.10;;;;;;5106063;28;19919;-53
2022/08/29 02:10:17;;;;;;;;;;;26.80;94.00;;;;;;5106593;28;19908;-52
2022/08/29 02:12:43;;;;;;;;;;;26.80;94.00;;;;;;5106121;28;19912;-56
2022/08/29 02:15:10;;;;;;;;;;;26.80;93.90;;;;;;5106230;28;19912;-54
2022/08/29 02:17:36;;;;;;;;;;;26.80;93.90;;;;;;5106213;28;19926;-54
2022/08/29 02:20:06;;;;;;;;;;;26.80;93.80;;;;;;5106298;28;19939;-55
2022/08/29 02:22:32;;;;;;;;;;;26.80;93.80;;;;;;5105887;28;19905;-58
2022/08/29 02:24:58;;;;;;;;;;;26.80;93.70;;;;;;5106131;28;19912;-56
2022/08/29 02:27:24;;;;;;;;;;;26.80;93.70;;;;;;5105887;28;19915;-56
2022/08/29 02:29:51;;;;;;;;;;;26.80;93.60;;;;;;5105849;28;20207;-57
2022/08/29 02:32:17;;;;;;;;;;;26.80;93.70;;;;;;5105700;28;19974;-54
2022/08/29 02:34:44;;;;;;;;;;;26.70;93.70;;;;;;5105988;28;19912;-56
2022/08/29 02:37:10;;;;;;;;;;;26.70;93.60;;;;;;5105470;28;19908;-55
2022/08/29 02:39:37;;;;;;;;;;;26.70;93.50;;;;;;5105944;28;19978;-55
2022/08/29 02:42:03;;;;;;;;;;;26.70;93.40;;;;;;5105703;28;19915;-55
2022/08/29 02:44:30;;;;;;;;;;;26.70;93.40;;;;;;5105593;28;20100;-55
2022/08/29 02:46:56;;;;;;;;;;;26.70;93.40;;;;;;5104721;28;19978;-52
2022/08/29 02:49:22;;;;;;;;;;;26.70;93.60;;;;;;5105475;28;19916;-55
2022/08/29 02:51:48;;;;;;;;;;;26.60;93.60;;;;;;5105412;28;19904;-57
2022/08/29 02:54:14;;;;;;;;;;;26.60;93.50;;;;;;5105311;28;19932;-51
2022/08/29 02:56:40;;;;;;;;;;;26.60;93.50;;;;;;5105399;28;19984;-53
2022/08/29 02:59:08;;;;;;;;;;;26.60;93.50;;;;;;5092297;28;19912;-50
2022/08/29 03:01:37;;;;;;;;;;;26.60;93.50;;;;;;5097346;28;19981;-52
2022/08/29 03:04:03;;;;;;;;;;;26.60;93.60;;;;;;5084718;28;19905;-52
2022/08/29 03:06:29;;;;;;;;;;;26.60;93.60;;;;;;5091309;28;19908;-48
2022/08/29 03:08:55;;;;;;;;;;;26.60;93.60;;;;;;5095669;28;19912;-53
2022/08/29 03:11:22;;;;;;;;;;;26.60;93.70;;;;;;5104946;28;19950;-49
2022/08/29 03:13:48;;;;;;;;;;;26.60;93.70;;;;;;5104822;28;19923;-51
2022/08/29 03:16:14;;;;;;;;;;;26.60;93.70;;;;;;5104918;28;19908;-52
2022/08/29 03:18:41;;;;;;;;;;;26.60;93.80;;;;;;5104925;28;19904;-52
2022/08/29 03:21:18;;;;;;;;;;;26.60;93.80;;;;;;5105397;28;19994;-54
2022/08/29 03:23:44;;;;;;;;;;;26.60;93.80;;;;;;5104983;28;20231;-51
2022/08/29 03:26:10;;;;;;;;;;;26.50;93.80;;;;;;5105313;28;19912;-52
2022/08/29 03:28:37;;;;;;;;;;;26.60;93.80;;;;;;5104514;28;19947;-53
2022/08/29 03:31:03;;;;;;;;;;;26.50;93.80;;;;;;5105165;28;19909;-50
2022/08/29 03:33:29;;;;;;;;;;;26.50;93.70;;;;;;5104734;28;20116;-51
2022/08/29 03:35:55;;;;;;;;;;;26.50;93.80;;;;;;5105124;28;19922;-50
2022/08/29 03:38:21;;;;;;;;;;;26.50;93.80;;;;;;5104445;28;19908;-53
2022/08/29 03:40:47;;;;;;;;;;;26.50;93.80;;;;;;5104947;28;19975;-50
2022/08/29 03:43:14;;;;;;;;;;;26.50;93.90;;;;;;5104656;28;19927;-50
2022/08/29 03:45:40;;;;;;;;;;;26.50;93.90;;;;;;5104766;28;19919;-57
2022/08/29 03:48:06;;;;;;;;;;;26.40;93.90;;;;;;5104297;28;20103;-55
2022/08/29 03:50:32;;;;;;;;;;;26.40;93.90;;;;;;5104715;28;19951;-53
2022/08/29 03:52:59;;;;;;;;;;;26.40;93.90;;;;;;5104341;28;19904;-55
2022/08/29 03:55:25;;;;;;;;;;;26.40;94.00;;;;;;5104862;28;19931;-51
2022/08/29 03:57:53;;;;;;;;;;;26.40;94.00;;;;;;5104205;28;20115;-55
2022/08/29 04:00:19;;;;;;;;;;;26.40;94.00;;;;;;5104456;28;20211;-50
2022/08/29 04:02:46;;;;;;;;;;;26.40;94.00;;;;;;5104244;28;19908;-47
2022/08/29 04:05:14;;;;;;;;;;;26.40;94.00;;;;;;5104545;28;19950;-47
2022/08/29 04:07:44;;;;;;;;;;;26.40;94.00;;;;;;5104167;28;19912;-51
2022/08/29 04:10:15;;;;;;;;;;;26.30;94.00;;;;;;5104635;28;19912;-53
2022/08/29 04:12:41;;;;;;;;;;;26.30;94.00;;;;;;5104306;28;19983;-52
2022/08/29 04:15:13;;;;;;;;;;;26.30;93.90;;;;;;5104424;28;20164;-49
2022/08/29 04:17:39;;;;;;;;;;;26.30;93.90;;;;;;5104289;28;19908;-52
2022/08/29 04:20:06;;;;;;;;;;;26.30;93.80;;;;;;5104387;28;20173;-52
2022/08/29 04:22:34;;;;;;;;;;;26.30;93.80;;;;;;5104026;28;19915;-52
2022/08/29 04:25:00;;;;;;;;;;;26.20;93.70;;;;;;5104453;28;19979;-55
2022/08/29 04:27:26;;;;;;;;;;;26.30;93.80;;;;;;5104144;28;19943;-52
2022/08/29 04:29:52;;;;;;;;;;;26.30;93.70;;;;;;5104189;28;20120;-52
2022/08/29 04:32:19;;;;;;;;;;;26.20;93.70;;;;;;5104222;28;20189;-54
2022/08/29 04:34:45;;;;;;;;;;;26.20;93.70;;;;;;5104153;28;19915;-51
2022/08/29 04:37:11;;;;;;;;;;;26.20;93.80;;;;;;5103984;28;19908;-53
2022/08/29 04:39:37;;;;;;;;;;;26.20;93.80;;;;;;5104171;28;19983;-52
2022/08/29 04:42:03;;;;;;;;;;;26.20;93.80;;;;;;5103942;28;19916;-54
2022/08/29 04:44:29;;;;;;;;;;;26.20;93.80;;;;;;5104014;28;19916;-54
2022/08/29 04:46:55;;;;;;;;;;;26.20;93.70;;;;;;5103974;28;19908;-53
2022/08/29 04:49:22;;;;;;;;;;;26.20;93.80;;;;;;5103764;28;19951;-51
2022/08/29 04:51:50;;;;;;;;;;;26.20;93.70;;;;;;5103911;28;20081;-54
2022/08/29 04:54:16;;;;;;;;;;;26.20;93.60;;;;;;5103923;28;19927;-53
2022/08/29 04:56:43;;;;;;;;;;;26.10;93.60;;;;;;5103863;28;20154;-53
2022/08/29 04:59:09;;;;;;;;;;;26.10;93.60;;;;;;5103688;28;19912;-51
2022/08/29 05:01:35;;;;;;;;;;;26.10;93.60;;;;;;5103712;28;19909;-56
2022/08/29 05:04:01;;;;;;;;;;;26.10;93.60;;;;;;5103772;28;19914;-51
2022/08/29 05:06:27;;;;;;;;;;;26.10;93.60;;;;;;5103878;28;19908;-52
2022/08/29 05:08:54;;;;;;;;;;;26.10;93.60;;;;;;5103529;28;19908;-48
2022/08/29 05:11:20;;;;;;;;;;;26.10;93.40;;;;;;5106033;28;19908;-52
2022/08/29 05:13:47;;;;;;;;;;;26.10;93.30;;;;;;5107181;28;19923;-52
2022/08/29 05:16:14;;;;;;;;;;;26.10;93.50;;;;;;5107177;28;19943;-51
2022/08/29 05:18:43;;;;;;;;;;;26.10;93.30;;;;;;5107371;28;19908;-50
2022/08/29 05:21:09;;;;;;;;;;;26.10;93.20;;;;;;5107624;28;19987;-55
2022/08/29 05:23:35;;;;;;;;;;;26.10;93.20;;;;;;5106881;28;19976;-52
2022/08/29 05:26:03;;;;;;;;;;;26.00;93.30;;;;;;5107659;28;19944;-52
2022/08/29 05:28:31;;;;;;;;;;;26.00;93.00;;;;;;5107023;28;19916;-51
2022/08/29 05:30:58;;;;;;;;;;;26.10;93.10;;;;;;5107398;28;19954;-52
2022/08/29 05:33:26;;;;;;;;;;;26.00;93.10;;;;;;5107008;28;19950;-52
2022/08/29 05:35:52;;;;;;;;;;;26.00;93.10;;;;;;5107378;28;20141;-54
2022/08/29 05:38:19;;;;;;;;;;;26.00;93.10;;;;;;5106774;28;20094;-48
2022/08/29 05:40:45;;;;;;;;;;;26.00;93.10;;;;;;5107384;28;19916;-52
2022/08/29 05:43:11;;;;;;;;;;;26.00;93.10;;;;;;5106758;28;19916;-53
2022/08/29 05:45:39;;;;;;;;;;;26.00;93.10;;;;;;5107080;28;20011;-49
2022/08/29 05:48:06;;;;;;;;;;;26.00;93.10;;;;;;5106596;28;19919;-51
2022/08/29 05:50:36;;;;;;;;;;;26.00;93.10;;;;;;5106905;28;20092;-52
2022/08/29 05:53:02;;;;;;;;;;;26.00;93.10;;;;;;5104688;28;20138;-49
2022/08/29 05:55:28;;;;;;;;;;;25.90;93.00;;;;;;5105901;28;19919;-53
2022/08/29 05:57:55;;;;;;;;;;;26.00;93.00;;;;;;5105530;28;19911;-53
2022/08/29 06:00:21;;;;;;;;;;;25.90;92.90;;;;;;5105505;28;19912;-49
2022/08/29 06:02:47;;;;;;;;;;;25.90;93.00;;;;;;5105479;28;19940;-56
2022/08/29 06:05:13;;;;;;;;;;;25.90;93.00;;;;;;5105553;28;19943;-52
2022/08/29 06:07:39;;;;;;;;;;;25.90;93.00;;;;;;5105488;28;19908;-52
2022/08/29 06:10:07;;;;;;;;;;;25.90;93.10;;;;;;5106598;28;19912;-51
2022/08/29 06:12:33;;;;;;;;;;;25.90;93.10;;;;;;5105237;28;19908;-51
2022/08/29 06:15:03;;;;;;;;;;;25.90;93.10;;;;;;5104500;28;20208;-54
2022/08/29 06:17:29;;;;;;;;;;;25.90;93.20;;;;;;5105340;28;19916;-51
2022/08/29 06:19:55;;;;;;;;;;;25.90;93.20;;;;;;5107877;28;19911;-49
2022/08/29 06:22:21;;;;;;;;;;;25.90;93.20;;;;;;5104813;28;19908;-47
2022/08/29 06:24:50;;;;;;;;;;;25.90;93.30;;;;;;5105765;28;19920;-58
2022/08/29 06:27:16;;;;;;;;;;;25.90;93.40;;;;;;5103914;28;19911;-52
2022/08/29 06:29:43;;;;;;;;;;;25.80;93.40;;;;;;5103548;28;20088;-51
2022/08/29 06:32:09;;;;;;;;;;;25.90;93.40;;;;;;5104277;28;19983;-51
2022/08/29 06:34:35;;;;;;;;;;;25.90;93.50;;;;;;5104550;28;19957;-54
2022/08/29 06:37:01;;;;;;;;;;;25.90;93.50;;;;;;5104200;28;19908;-53
2022/08/29 06:39:27;;;;;;;;;;;25.90;93.50;;;;;;5104479;28;19915;-53
2022/08/29 06:41:53;;;;;;;;;;;25.90;93.60;;;;;;5104575;28;19908;-54
2022/08/29 06:44:20;;;;;;;;;;;25.90;93.60;;;;;;5104793;28;20202;-52
2022/08/29 06:46:48;;;;;;;;;;;25.80;93.60;;;;;;5104417;28;19975;-55
2022/08/29 06:49:15;;;;;;;;;;;25.90;93.60;;;;;;5102847;28;20215;-53
2022/08/29 06:51:47;;;;;;;;;;;25.80;93.70;;;;;;5104406;28;19913;-57
2022/08/29 06:54:14;;;;;;;;;;;25.80;93.70;;;;;;5104308;28;20287;-52
2022/08/29 06:56:41;;;;;;;;;;;25.80;93.70;;;;;;5104748;28;20087;-54
2022/08/29 06:59:07;;;;;;;;;;;25.80;93.80;;;;;;5104510;28;19911;-53
2022/08/29 07:01:33;;;;;;;;;;;25.80;93.90;;;;;;5104666;28;19908;-54
2022/08/29 07:04:00;;;;;;;;;;;25.80;93.90;;;;;;5104547;28;19912;-54
2022/08/29 07:06:26;;;;;;;;;;;25.80;93.80;;;;;;5104804;28;19961;-53
2022/08/29 07:08:52;;;;;;;;;;;25.80;93.80;;;;;;5102990;28;19908;-55
2022/08/29 07:11:18;;;;;;;;;;;25.80;93.80;;;;;;5104021;28;19927;-55
2022/08/29 07:13:45;;;;;;;;;;;25.80;93.80;;;;;;5103851;28;19928;-53
2022/08/29 07:16:15;;;;;;;;;;;25.80;93.70;;;;;;5104265;28;20135;-54
2022/08/29 07:18:44;;;;;;;;;;;25.80;93.70;;;;;;5103875;28;19908;-53
2022/08/29 07:21:12;;;;;;;;;;;25.90;93.80;;;;;;5104294;28;20130;-55
2022/08/29 07:23:39;;;;;;;;;;;25.90;93.70;;;;;;5103666;28;19912;-55
2022/08/29 07:26:16;;;;;;;;;;;25.90;93.70;;;;;;5101583;28;19973;-54
2022/08/29 07:28:42;;;;;;;;;;;25.90;93.70;;;;;;5103487;28;20153;-56
2022/08/29 07:31:08;;;;;;;;;;;25.90;93.70;;;;;;5103809;28;19990;-53
2022/08/29 07:33:35;;;;;;;;;;;25.90;93.70;;;;;;5103620;28;19904;-57
2022/08/29 07:36:01;;;;;;;;;;;25.90;93.80;;;;;;5104354;28;19909;-56
2022/08/29 07:38:29;;;;;;;;;;;25.90;93.80;;;;;;5103971;28;19951;-55
2022/08/29 07:41:06;;;;;;;;;;;25.90;93.90;;;;;;5104355;28;19919;-55
2022/08/29 07:43:32;;;;;;;;;;;25.90;93.90;;;;;;5103088;28;19979;-54
2022/08/29 07:46:11;;;;;;;;;;;25.90;94.00;;;;;;5104336;28;19912;-54
2022/08/29 07:48:37;;;;;;;;;;;25.90;94.10;;;;;;5103662;28;19993;-54
2022/08/29 07:51:11;;;;;;;;;;;25.90;94.20;;;;;;5104209;28;19919;-56
2022/08/29 07:53:37;;;;;;;;;;;25.90;94.20;;;;;;5103798;28;19946;-55
2022/08/29 07:56:05;;;;;;;;;;;25.90;94.30;;;;;;5103903;28;20078;-54
2022/08/29 07:58:31;;;;;;;;;;;25.90;94.40;;;;;;5103669;28;19915;-52
2022/08/29 08:00:57;;;;;;;;;;;25.90;94.40;;;;;;5085758;28;20089;-53
2022/08/29 08:03:25;;;;;;;;;;;25.90;94.40;;;;;;5103565;28;19944;-57
2022/08/29 08:05:52;;;;;;;;;;;25.90;94.40;;;;;;5103984;28;19919;-50
2022/08/29 08:08:18;;;;;;;;;;;25.90;94.40;;;;;;5103462;28;19908;-53
2022/08/29 08:10:45;;;;;;;;;;;25.90;94.40;;;;;;5104010;28;20148;-52
2022/08/29 08:13:12;;;;;;;;;;;25.90;94.40;;;;;;5103499;28;20124;-55
2022/08/29 08:15:38;;;;;;;;;;;25.90;94.30;;;;;;5103879;28;19912;-55
2022/08/29 08:18:04;;;;;;;;;;;25.90;94.40;;;;;;5103830;28;19908;-52
2022/08/29 08:20:30;;;;;;;;;;;25.90;94.40;;;;;;5104463;28;19915;-54
2022/08/29 08:22:57;;;;;;;;;;;25.90;94.70;;;;;;5104139;28;20185;-51
2022/08/29 08:25:23;;;;;;;;;;;25.90;94.40;;;;;;5104430;28;19979;-52
2022/08/29 08:27:49;;;;;;;;;;;25.90;94.50;;;;;;5103826;28;19950;-55
2022/08/29 08:30:16;;;;;;;;;;;25.90;94.50;;;;;;5104438;28;19920;-54
2022/08/29 08:32:42;;;;;;;;;;;26.00;94.50;;;;;;5103984;28;20081;-54
2022/08/29 08:35:08;;;;;;;;;;;25.90;94.50;;;;;;5104215;28;19942;-57
2022/08/29 08:37:35;;;;;;;;;;;25.90;94.50;;;;;;5104049;28;20125;-55
2022/08/29 08:40:01;;;;;;;;;;;25.90;94.50;;;;;;5104225;28;20196;-55
2022/08/29 08:42:27;;;;;;;;;;;25.90;94.60;;;;;;5103891;28;19947;-51
2022/08/29 08:44:54;;;;;;;;;;;25.90;94.60;;;;;;5104477;28;19918;-59
2022/08/29 08:47:24;;;;;;;;;;;25.90;94.60;;;;;;5107788;28;19908;-56
2022/08/29 08:49:53;;;;;;;;;;;25.90;94.60;;;;;;5107834;28;19908;-57
2022/08/29 08:52:26;;;;;;;;;;;25.90;94.60;;;;;;5107831;28;19970;-53
2022/08/29 08:54:58;;;;;;;;;;;25.90;94.60;;;;;;5107927;28;19912;-56
2022/08/29 08:57:28;;;;;;;;;;;25.90;94.70;;;;;;5107873;28;20135;-54
2022/08/29 08:59:56;;;;;;;;;;;25.90;94.70;;;;;;5107815;28;19962;-53
2022/08/29 09:02:57;;;;;;;;;;;25.90;94.70;;;;;;5107463;28;19908;-53
2022/08/29 09:05:29;;;;;;;;;;;25.90;94.70;;;;;;5025723;28;19988;-54
2022/08/29 09:08:01;;;;;;;;;;;25.90;94.80;;;;;;5094013;28;20097;-52
2022/08/29 09:10:42;;;;;;;;;;;25.80;94.70;;;;;;5107882;28;19916;-52
2022/08/29 09:13:27;;;;;;;;;;;25.80;94.80;;;;;;5107197;28;19958;-54
2022/08/29 09:15:54;;;;;;;;;;;25.80;94.80;;;;;;5107724;28;20265;-54
2022/08/29 09:18:27;;;;;;;;;;;25.80;94.80;;;;;;5107210;28;19908;-54
2022/08/29 09:20:53;;;;;;;;;;;25.80;94.80;;;;;;5107599;28;20143;-55
2022/08/29 09:23:40;;;;;;;;;;;25.90;94.80;;;;;;5106586;28;19943;-53
2022/08/29 09:26:07;;;;;;;;;;;25.80;94.70;;;;;;5087392;28;20226;-51
2022/08/29 09:28:33;;;;;;;;;;;25.90;94.70;;;;;;5086590;28;19920;-58
2022/08/29 09:31:18;;;;;;;;;;;25.80;94.70;;;;;;5087082;28;19912;-54
2022/08/29 09:33:49;;;;;;;;;;;25.90;94.70;;;;;;5086723;28;20283;-53
2022/08/29 09:36:31;;;;;;;;;;;25.90;94.70;;;;;;5086489;28;19912;-53
2022/08/29 09:39:16;;;;;;;;;;;25.90;94.70;;;;;;5086581;28;19909;-53
2022/08/29 09:41:44;;;;;;;;;;;25.90;94.70;;;;;;5086660;28;19909;-52
2022/08/29 09:44:17;;;;;;;;;;;25.90;94.70;;;;;;5086679;28;19915;-54
2022/08/29 09:46:44;;;;;;;;;;;25.80;94.70;;;;;;5086444;28;20223;-56
2022/08/29 09:49:12;;;;;;;;;;;25.80;94.80;;;;;;5086371;28;19983;-54
2022/08/29 09:51:40;;;;;;;;;;;25.80;94.70;;;;;;5086381;28;20100;-54
2022/08/29 09:54:12;;;;;;;;;;;25.80;95.00;;;;;;5086294;28;19909;-54
2022/08/29 09:56:47;;;;;;;;;;;25.80;94.70;;;;;;5085991;28;19987;-55
2022/08/29 09:59:22;;;;;;;;;;;25.80;94.70;;;;;;5086122;28;19924;-53
2022/08/29 10:01:48;;;;;;;;;;;25.80;94.70;;;;;;5086170;28;19912;-52
2022/08/29 10:04:34;;;;;;;;;;;25.70;94.80;;;;;;5086196;28;19955;-56
2022/08/29 10:07:08;;;;;;;;;;;25.70;94.70;;;;;;5086126;28;19909;-52
2022/08/29 10:09:34;;;;;;;;;;;25.70;94.70;;;;;;5086131;28;20096;-54
2022/08/29 10:12:05;;;;;;;;;;;25.70;94.70;;;;;;5085831;28;19908;-55
2022/08/29 10:14:53;;;;;;;;;;;25.70;94.60;;;;;;5085934;28;19960;-57
2022/08/29 10:20:11;;;;;;;;;;;25.70;94.50;;;;;;5086150;28;19919;-51
2022/08/29 10:22:50;;;;;;;;;;;25.70;94.50;;;;;;5085804;28;19923;-54
2022/08/29 10:25:19;;;;;;;;;;;25.70;94.50;;;;;;5086174;28;19920;-53
2022/08/29 10:27:53;;;;;;;;;;;25.70;94.50;;;;;;5085454;28;19969;-57
2022/08/29 10:30:21;;;;;;;;;;;25.70;94.50;;;;;;5086036;28;19912;-57
2022/08/29 10:33:08;;;;;;;;;;;25.70;94.50;;;;;;5085914;28;20077;-53
2022/08/29 10:35:37;;;;;;;;;;;25.60;94.40;;;;;;5085803;28;19912;-52
2022/08/29 10:38:08;;;;;;;;;;;25.70;94.50;;;;;;5088743;28;20099;-51
2022/08/29 10:40:34;;;;;;;;;;;25.60;94.30;;;;;;5106085;28;19954;-56
2022/08/29 10:43:13;;;;;;;;;;;25.60;94.40;;;;;;5105815;28;19908;-55
2022/08/29 10:45:53;;;;;;;;;;;25.60;94.40;;;;;;5105859;28;19912;-55
2022/08/29 10:48:23;;;;;;;;;;;25.50;94.40;;;;;;5105748;28;19936;-60
2022/08/29 10:51:04;;;;;;;;;;;25.60;94.40;;;;;;5105930;28;20193;-52
2022/08/29 10:53:35;;;;;;;;;;;25.60;94.50;;;;;;5105705;28;19908;-53
2022/08/29 10:56:21;;;;;;;;;;;25.50;94.50;;;;;;5105819;28;19912;-55
2022/08/29 10:58:54;;;;;;;;;;;25.50;94.60;;;;;;5104994;28;19908;-61
2022/08/29 11:01:23;;;;;;;;;;;25.50;94.50;;;;;;5105140;28;20200;-60
2022/08/29 11:03:58;;;;;;;;;;;25.50;94.50;;;;;;5104838;28;19912;-54
2022/08/29 11:06:28;;;;;;;;;;;25.50;94.50;;;;;;5105162;28;19907;-53
2022/08/29 11:09:07;;;;;;;;;;;25.50;94.50;;;;;;5102962;28;19912;-51
2022/08/29 11:11:35;;;;;;;;;;;25.50;94.50;;;;;;5105077;28;19908;-52
2022/08/29 11:14:10;;;;;;;;;;;25.50;94.40;;;;;;5104845;28;20085;-52
2022/08/29 11:16:48;;;;;;;;;;;25.50;94.40;;;;;;5105251;28;19908;-54
2022/08/29 11:19:24;;;;;;;;;;;25.40;94.40;;;;;;5104881;28;19912;-52
2022/08/29 11:21:52;;;;;;;;;;;25.50;94.40;;;;;;5103996;28;19908;-55
2022/08/29 11:24:19;;;;;;;;;;;25.50;94.40;;;;;;5104838;28;19979;-53
2022/08/29 11:27:03;;;;;;;;;;;25.50;94.30;;;;;;5104763;28;19936;-53
2022/08/29 11:29:29;;;;;;;;;;;25.50;94.30;;;;;;5105050;28;19916;-54
2022/08/29 11:32:14;;;;;;;;;;;25.50;94.30;;;;;;5104817;28;19915;-55
2022/08/29 11:34:59;;;;;;;;;;;25.50;94.40;;;;;;5104991;28;19912;-55
2022/08/29 11:37:34;;;;;;;;;;;25.50;94.50;;;;;;5104840;28;20004;-54
2022/08/29 11:40:15;;;;;;;;;;;25.50;94.50;;;;;;5104913;28;20135;-59
2022/08/29 11:42:43;;;;;;;;;;;25.60;94.50;;;;;;5104705;28;19979;-55
2022/08/29 11:45:12;;;;;;;;;;;25.60;94.60;;;;;;5104850;28;19919;-54
2022/08/29 11:47:44;;;;;;;;;;;25.70;94.60;;;;;;5104460;28;20112;-52
2022/08/29 11:50:19;;;;;;;;;;;25.70;94.50;;;;;;5104730;28;19913;-56
2022/08/29 11:52:57;;;;;;;;;;;25.70;94.50;;;;;;5104476;28;19908;-51
2022/08/29 11:55:29;;;;;;;;;;;25.70;94.50;;;;;;5104316;28;19912;-52
2022/08/29 11:58:00;;;;;;;;;;;25.70;94.40;;;;;;5104397;28;19931;-52
2022/08/29 12:00:27;;;;;;;;;;;25.70;94.50;;;;;;5104619;28;19977;-53
2022/08/29 12:02:53;;;;;;;;;;;25.80;94.50;;;;;;5104487;28;19983;-56
2022/08/29 12:05:28;;;;;;;;;;;25.80;94.40;;;;;;5104779;28;19912;-53
2022/08/29 12:07:58;;;;;;;;;;;25.90;94.40;;;;;;5104220;28;20228;-55
2022/08/29 12:10:28;;;;;;;;;;;25.90;94.40;;;;;;5104923;28;19983;-55
2022/08/29 12:13:03;;;;;;;;;;;25.90;94.40;;;;;;5104006;28;19916;-56
2022/08/29 12:15:30;;;;;;;;;;;26.00;94.40;;;;;;5104717;28;19912;-56
2022/08/29 12:18:12;;;;;;;;;;;26.00;94.30;;;;;;5104177;28;19908;-58
2022/08/29 12:20:43;;;;;;;;;;;26.10;94.30;;;;;;5107916;28;20095;-52
2022/08/29 12:23:12;;;;;;;;;;;26.10;93.90;;;;;;5108351;28;19908;-55
2022/08/29 12:25:47;;;;;;;;;;;26.10;93.70;;;;;;5108582;28;19912;-54
2022/08/29 12:28:19;;;;;;;;;;;26.10;93.90;;;;;;5107996;28;19919;-63
2022/08/29 12:30:50;;;;;;;;;;;26.10;94.00;;;;;;5108327;28;20177;-56
2022/08/29 12:33:26;;;;;;;;;;;26.20;94.10;;;;;;5108225;28;19942;-56
2022/08/29 12:36:06;;;;;;;;;;;26.10;94.20;;;;;;5108547;28;19919;-55
2022/08/29 12:38:35;;;;;;;;;;;26.20;94.20;;;;;;5108152;28;19909;-53
2022/08/29 12:41:15;;;;;;;;;;;26.20;94.30;;;;;;5108546;28;19975;-54
2022/08/29 12:43:42;;;;;;;;;;;26.20;94.20;;;;;;5108216;28;19908;-56
2022/08/29 12:46:18;;;;;;;;;;;26.20;94.20;;;;;;5108496;28;19913;-54
2022/08/29 12:48:48;;;;;;;;;;;26.20;94.20;;;;;;5107753;28;19939;-54
2022/08/29 12:51:33;;;;;;;;;;;26.20;94.00;;;;;;5107893;28;19989;-54
2022/08/29 12:53:59;;;;;;;;;;;26.20;94.00;;;;;;5107519;28;19908;-51
2022/08/29 12:56:25;;;;;;;;;;;26.20;94.10;;;;;;5107780;28;19914;-52
2022/08/29 12:58:51;;;;;;;;;;;26.20;94.00;;;;;;5107827;28;19908;-53
2022/08/29 13:01:21;;;;;;;;;;;26.20;94.10;;;;;;5107492;28;19944;-51
2022/08/29 13:03:59;;;;;;;;;;;26.20;94.30;;;;;;5107649;28;19908;-57
2022/08/29 13:06:25;;;;;;;;;;;26.20;94.20;;;;;;5107841;28;20095;-54
2022/08/29 13:08:52;;;;;;;;;;;26.30;94.10;;;;;;5107400;28;20093;-56
2022/08/29 13:11:19;;;;;;;;;;;26.30;94.20;;;;;;5107434;28;19930;-55
2022/08/29 13:13:46;;;;;;;;;;;26.30;94.20;;;;;;5107364;28;19923;-55
2022/08/29 13:16:28;;;;;;;;;;;26.30;94.30;;;;;;5107163;28;19919;-57
2022/08/29 13:18:54;;;;;;;;;;;26.30;94.30;;;;;;5107236;28;19908;-54
2022/08/29 13:21:22;;;;;;;;;;;26.30;94.30;;;;;;5107172;28;19946;-51
2022/08/29 13:24:14;;;;;;;;;;;26.30;94.30;;;;;;5107213;28;19987;-56
2022/08/29 13:26:43;;;;;;;;;;;26.30;94.30;;;;;;5102826;28;19912;-56
2022/08/29 13:29:09;;;;;;;;;;;26.30;94.30;;;;;;5107089;28;19923;-54
2022/08/29 13:31:35;;;;;;;;;;;26.40;94.30;;;;;;5106462;28;19947;-52
2022/08/29 13:34:12;;;;;;;;;;;26.40;94.40;;;;;;5106903;28;20199;-53
2022/08/29 13:36:46;;;;;;;;;;;26.40;94.40;;;;;;5107286;28;19979;-53
2022/08/29 13:39:23;;;;;;;;;;;26.40;94.40;;;;;;5106426;28;19912;-54
2022/08/29 13:42:02;;;;;;;;;;;26.40;94.40;;;;;;5097628;28;19912;-54
2022/08/29 13:44:28;;;;;;;;;;;26.40;94.30;;;;;;5106842;28;20176;-48
2022/08/29 13:46:58;;;;;;;;;;;26.40;94.40;;;;;;5106874;28;19908;-48
2022/08/29 13:49:25;;;;;;;;;;;26.40;94.40;;;;;;5106808;28;20096;-50
2022/08/29 13:51:51;;;;;;;;;;;26.40;94.40;;;;;;5106571;28;19909;-47
2022/08/29 13:54:17;;;;;;;;;;;26.40;94.50;;;;;;5106812;28;19912;-53
2022/08/29 13:56:47;;;;;;;;;;;26.40;94.50;;;;;;5106161;28;19936;-51
2022/08/29 13:59:14;;;;;;;;;;;26.40;94.60;;;;;;5106519;28;19959;-49
2022/08/29 14:01:40;;;;;;;;;;;26.40;94.60;;;;;;5106638;28;19911;-49
2022/08/29 14:04:06;;;;;;;;;;;26.40;94.70;;;;;;5106051;28;19908;-49
2022/08/29 14:06:32;;;;;;;;;;;26.50;94.80;;;;;;5106359;28;19908;-55
2022/08/29 14:08:59;;;;;;;;;;;26.50;95.00;;;;;;5106273;28;19912;-48
2022/08/29 14:11:25;;;;;;;;;;;26.50;94.80;;;;;;5106394;28;19908;-51
2022/08/29 14:13:51;;;;;;;;;;;26.50;94.90;;;;;;5106076;28;20104;-52
2022/08/29 14:16:18;;;;;;;;;;;26.60;94.80;;;;;;5088178;28;20401;-48
2022/08/29 14:18:45;;;;;;;;;;;26.60;94.80;;;;;;5106281;28;19972;-52
2022/08/29 14:21:11;;;;;;;;;;;26.60;94.90;;;;;;5105870;28;20009;-48
2022/08/29 14:23:37;;;;;;;;;;;26.60;94.80;;;;;;5105446;28;19946;-50
2022/08/29 14:26:03;;;;;;;;;;;26.60;94.90;;;;;;5106240;28;19912;-51
2022/08/29 14:28:29;;;;;;;;;;;26.60;94.80;;;;;;5104956;28;19912;-55
2022/08/29 14:30:55;;;;;;;;;;;26.60;94.80;;;;;;5106366;28;19912;-58
2022/08/29 14:33:22;;;;;;;;;;;26.60;94.60;;;;;;5100349;28;19955;-48